Time;durP1;ratioP1;P1;durP2;ratioP2;P2;SDS_P1;SDS_P2;PMS_P1;PMS_P2;Temp;Humidity;BMP_temperature;BMP_pressure;BME280_temperature;BME280_humidity;BME280_pressure;Samples;Min_cycle;Max_cycle;Signal;HPM_P1;HPM_P2
2021/08/09 00:00:33;;;;;;;4.30;1.60;;;17.60;99.90;;;;;;4156068;28;20034;-72
2021/08/09 00:02:33;;;;;;;2.42;1.70;;;17.60;99.90;;;;;;4157542;28;20041;-71
2021/08/09 00:04:35;;;;;;;3.67;1.90;;;17.60;99.90;;;;;;4131108;28;20478;-72
2021/08/09 00:06:36;;;;;;;4.17;1.87;;;17.60;99.90;;;;;;4157843;28;20034;-71
2021/08/09 00:08:36;;;;;;;3.65;1.77;;;17.50;99.90;;;;;;4156199;28;20041;-72
2021/08/09 00:10:37;;;;;;;2.88;1.60;;;17.50;99.90;;;;;;4157024;28;20026;-72
2021/08/09 00:12:37;;;;;;;3.47;1.70;;;17.50;99.90;;;;;;4158959;28;20033;-72
2021/08/09 00:14:39;;;;;;;2.90;1.67;;;17.50;99.90;;;;;;4162533;28;20413;-72
2021/08/09 00:16:40;;;;;;;2.47;1.40;;;17.50;99.90;;;;;;4157573;28;20026;-72
2021/08/09 00:18:45;;;;;;;3.03;1.73;;;17.50;99.90;;;;;;4157428;28;20034;-71
2021/08/09 00:20:46;;;;;;;5.32;1.90;;;17.50;99.90;;;;;;4155989;28;20112;-71
2021/08/09 00:22:46;;;;;;;7.63;2.25;;;17.50;99.90;;;;;;4147025;28;20065;-72
2021/08/09 00:24:47;;;;;;;8.60;2.00;;;17.50;99.90;;;;;;4157543;28;20033;-71
2021/08/09 00:26:47;;;;;;;2.33;1.30;;;17.50;99.90;;;;;;4157299;28;20478;-71
2021/08/09 00:28:48;;;;;;;5.45;1.98;;;17.40;99.90;;;;;;4157423;28;20045;-72
2021/08/09 00:30:49;;;;;;;4.28;1.70;;;17.30;99.90;;;;;;4152945;28;20041;-71
2021/08/09 00:32:49;;;;;;;3.55;1.80;;;17.30;99.90;;;;;;4154147;28;20095;-72
2021/08/09 00:34:50;;;;;;;4.22;1.90;;;17.30;99.90;;;;;;4150906;28;20033;-71
2021/08/09 00:36:51;;;;;;;2.35;1.38;;;17.30;99.90;;;;;;4165527;28;20037;-72
2021/08/09 00:38:51;;;;;;;2.63;1.52;;;17.30;99.90;;;;;;4166214;28;20481;-71
2021/08/09 00:40:52;;;;;;;3.95;1.70;;;17.30;99.90;;;;;;4159312;28;20067;-72
2021/08/09 00:42:52;;;;;;;4.65;1.75;;;17.30;99.90;;;;;;4159855;28;20042;-72
2021/08/09 00:44:53;;;;;;;2.08;1.30;;;17.30;99.90;;;;;;4160316;28;20405;-71
2021/08/09 00:46:54;;;;;;;2.63;1.52;;;17.30;99.90;;;;;;4158812;28;20030;-71
2021/08/09 00:48:54;;;;;;;4.30;1.77;;;17.30;99.90;;;;;;4158701;28;20472;-72
2021/08/09 00:50:55;;;;;;;5.18;1.77;;;17.30;99.90;;;;;;4160067;28;20053;-72
2021/08/09 00:52:56;;;;;;;4.18;1.50;;;17.30;99.90;;;;;;4160059;28;20029;-72
2021/08/09 00:54:57;;;;;;;3.33;1.50;;;17.30;99.90;;;;;;4159212;28;20660;-71
2021/08/09 00:56:58;;;;;;;2.42;1.60;;;17.30;99.90;;;;;;4160012;28;20034;-71
2021/08/09 00:59:00;;;;;;;6.43;1.85;;;17.30;99.90;;;;;;4158371;28;20065;-71
2021/08/09 01:01:00;;;;;;;3.45;1.90;;;17.30;99.90;;;;;;4160019;28;20474;-72
2021/08/09 01:03:01;;;;;;;7.05;2.13;;;17.30;99.90;;;;;;4159885;28;20033;-72
2021/08/09 01:05:04;;;;;;;3.25;1.80;;;17.20;99.90;;;;;;4159820;28;20037;-71
2021/08/09 01:07:07;;;;;;;5.35;2.00;;;17.20;99.90;;;;;;4160180;28;20037;-71
2021/08/09 01:09:23;;;;;;;4.10;1.65;;;17.10;99.90;;;;;;4159722;28;20033;-71
2021/08/09 01:11:38;;;;;;;3.10;1.73;;;17.10;99.90;;;;;;4152053;28;20083;-71
2021/08/09 01:13:52;;;;;;;3.53;1.52;;;17.10;99.90;;;;;;4159093;28;20045;-71
2021/08/09 01:16:01;;;;;;;5.38;1.90;;;17.10;99.90;;;;;;4157497;28;20111;-72
2021/08/09 01:18:03;;;;;;;4.40;2.00;;;17.00;99.90;;;;;;4165016;28;20497;-71
2021/08/09 01:20:15;;;;;;;4.40;1.80;;;17.10;99.90;;;;;;4157184;28;20026;-72
2021/08/09 01:22:34;;;;;;;4.83;1.80;;;17.00;99.90;;;;;;4163137;28;20381;-72
2021/08/09 01:24:46;;;;;;;3.13;1.50;;;17.10;99.90;;;;;;4157787;28;20026;-72
2021/08/09 01:26:55;;;;;;;5.40;1.85;;;17.10;99.90;;;;;;4156446;28;20038;-71
2021/08/09 01:28:58;;;;;;;5.65;2.05;;;17.10;99.90;;;;;;4159401;28;20045;-72
2021/08/09 01:31:00;;;;;;;3.03;1.92;;;17.00;99.90;;;;;;4159872;28;20457;-72
2021/08/09 01:33:01;;;;;;;2.50;1.63;;;17.00;99.90;;;;;;4157765;28;20311;-72
2021/08/09 01:35:03;;;;;;;3.38;1.52;;;17.00;99.90;;;;;;4158105;28;20065;-71
2021/08/09 01:37:05;;;;;;;2.45;1.73;;;17.00;99.90;;;;;;4157896;28;20112;-71
2021/08/09 01:39:05;;;;;;;3.80;2.00;;;17.00;99.90;;;;;;4166972;28;20073;-72
2021/08/09 01:41:07;;;;;;;4.47;1.80;;;17.00;99.90;;;;;;4152913;28;20594;-71
2021/08/09 01:43:08;;;;;;;4.63;2.10;;;16.90;99.90;;;;;;4149956;28;20129;-72
2021/08/09 01:45:09;;;;;;;5.50;1.90;;;16.90;99.90;;;;;;4152174;28;20030;-72
2021/08/09 01:47:10;;;;;;;4.07;1.50;;;16.90;99.90;;;;;;4152419;28;20116;-72
2021/08/09 01:49:12;;;;;;;3.90;1.50;;;16.90;99.90;;;;;;4143821;28;20049;-72
2021/08/09 01:51:14;;;;;;;4.07;1.55;;;16.90;99.90;;;;;;4133213;28;20598;-72
2021/08/09 01:53:15;;;;;;;2.93;1.57;;;16.90;99.90;;;;;;4137129;28;20510;-72
2021/08/09 01:55:18;;;;;;;7.07;1.55;;;16.90;99.90;;;;;;4137791;28;20026;-72
2021/08/09 01:57:19;;;;;;;3.53;1.83;;;16.90;99.90;;;;;;4140576;28;20524;-72
2021/08/09 01:59:23;;;;;;;3.10;1.80;;;16.90;99.90;;;;;;4133843;28;20045;-72
2021/08/09 02:01:26;;;;;;;6.93;2.20;;;16.90;99.90;;;;;;4133177;28;20041;-72
2021/08/09 02:03:26;;;;;;;3.05;1.63;;;16.90;99.90;;;;;;4140369;28;20026;-72
2021/08/09 02:05:27;;;;;;;5.93;1.75;;;16.90;99.90;;;;;;4140392;28;20485;-71
2021/08/09 02:07:28;;;;;;;3.47;1.60;;;16.90;99.90;;;;;;4132518;28;20030;-71
2021/08/09 02:09:29;;;;;;;3.40;1.52;;;16.90;99.90;;;;;;4135859;28;20022;-72
2021/08/09 02:11:38;;;;;;;4.47;1.70;;;16.90;99.90;;;;;;4140160;28;20210;-71
2021/08/09 02:13:49;;;;;;;4.57;1.90;;;16.80;99.90;;;;;;4137986;28;20048;-72
2021/08/09 02:16:03;;;;;;;4.07;1.67;;;16.90;99.90;;;;;;4137207;28;20054;-71
2021/08/09 02:18:28;;;;;;;2.83;1.63;;;16.80;99.90;;;;;;4132214;28;20037;-71
2021/08/09 02:20:32;;;;;;;1.77;1.30;;;16.90;99.90;;;;;;4146127;28;20028;-71
2021/08/09 02:22:42;;;;;;;2.67;1.63;;;16.90;99.90;;;;;;4157234;28;20125;-71
2021/08/09 02:24:57;;;;;;;3.38;1.77;;;16.90;99.90;;;;;;4157749;28;20052;-71
2021/08/09 02:27:08;;;;;;;10.52;2.05;;;16.90;99.90;;;;;;4158732;28;20030;-72
2021/08/09 02:29:16;;;;;;;2.95;1.65;;;16.90;99.90;;;;;;4158682;28;20033;-72
2021/08/09 02:31:19;;;;;;;2.10;1.60;;;16.90;99.90;;;;;;4160099;28;20037;-71
2021/08/09 02:33:22;;;;;;;5.15;1.88;;;17.00;99.90;;;;;;4157258;28;20090;-71
2021/08/09 02:35:24;;;;;;;3.83;1.90;;;17.00;99.90;;;;;;4157595;28;20033;-72
2021/08/09 02:37:26;;;;;;;3.70;2.05;;;17.00;99.90;;;;;;4158568;28;20029;-72
2021/08/09 02:39:31;;;;;;;3.35;1.83;;;17.00;99.90;;;;;;4158427;28;20450;-71
2021/08/09 02:41:32;;;;;;;2.97;1.50;;;17.00;99.90;;;;;;4161053;28;20029;-71
2021/08/09 02:43:34;;;;;;;3.75;1.80;;;17.00;99.90;;;;;;4158565;28;20041;-71
2021/08/09 02:45:36;;;;;;;2.92;1.75;;;17.00;99.90;;;;;;4159479;28;20030;-72
2021/08/09 02:47:37;;;;;;;3.97;1.63;;;17.00;99.90;;;;;;4158527;28;20041;-72
2021/08/09 02:49:41;;;;;;;5.93;2.25;;;17.00;99.90;;;;;;4158538;28;20260;-71
2021/08/09 02:51:41;;;;;;;3.75;1.60;;;17.00;99.90;;;;;;4157088;28;20513;-72
2021/08/09 02:53:43;;;;;;;4.95;1.80;;;17.00;99.90;;;;;;4156027;28;20025;-72
2021/08/09 02:55:49;;;;;;;5.87;2.00;;;17.00;99.90;;;;;;4158092;28;20048;-71
2021/08/09 02:57:51;;;;;;;4.20;1.52;;;17.00;99.90;;;;;;4158298;28;20271;-71
2021/08/09 02:59:52;;;;;;;2.27;1.60;;;16.90;99.90;;;;;;4158422;28;20385;-72
2021/08/09 03:01:53;;;;;;;4.70;1.90;;;16.90;99.90;;;;;;4158071;28;20129;-72
2021/08/09 03:03:57;;;;;;;4.50;1.65;;;16.90;99.90;;;;;;4158013;28;20036;-72
2021/08/09 03:05:59;;;;;;;2.92;1.60;;;16.90;99.90;;;;;;4163615;28;20025;-71
2021/08/09 03:08:01;;;;;;;3.47;1.57;;;16.90;99.90;;;;;;4158297;28;20049;-72
2021/08/09 03:10:05;;;;;;;3.65;1.50;;;16.90;99.90;;;;;;4158334;28;20033;-72
2021/08/09 03:12:06;;;;;;;4.25;1.77;;;16.90;99.90;;;;;;4158249;28;20346;-72
2021/08/09 03:14:07;;;;;;;3.00;1.80;;;16.80;99.90;;;;;;4189698;28;20082;-72
2021/08/09 03:16:07;;;;;;;3.30;1.83;;;16.80;99.90;;;;;;4164863;28;20038;-72
2021/08/09 03:18:09;;;;;;;4.32;1.90;;;16.80;99.90;;;;;;4158562;28;20390;-72
2021/08/09 03:20:10;;;;;;;5.95;1.63;;;16.80;99.90;;;;;;4157862;28;20429;-72
2021/08/09 03:22:10;;;;;;;2.95;1.52;;;16.70;99.90;;;;;;4158042;28;20029;-72
2021/08/09 03:24:11;;;;;;;2.90;1.65;;;16.70;99.90;;;;;;4157822;28;20397;-72
2021/08/09 03:26:12;;;;;;;2.33;1.58;;;16.70;99.90;;;;;;4189091;28;20086;-72
2021/08/09 03:28:12;;;;;;;3.47;1.75;;;16.80;99.90;;;;;;4155513;28;20075;-72
2021/08/09 03:30:13;;;;;;;5.22;2.10;;;16.80;99.90;;;;;;4156416;28;20109;-72
2021/08/09 03:32:13;;;;;;;4.38;1.80;;;16.80;99.90;;;;;;4162449;28;20501;-72
2021/08/09 03:34:14;;;;;;;3.20;1.77;;;16.80;99.90;;;;;;4158327;28;20063;-72
2021/08/09 03:36:15;;;;;;;5.95;1.80;;;16.80;99.90;;;;;;4157376;28;20030;-71
2021/08/09 03:38:15;;;;;;;5.85;2.00;;;16.80;99.90;;;;;;4158207;28;20024;-72
2021/08/09 03:40:16;;;;;;;4.80;1.85;;;16.80;99.90;;;;;;4156364;28;20038;-72
2021/08/09 03:42:20;;;;;;;3.40;2.05;;;16.80;99.90;;;;;;4157963;28;20219;-72
2021/08/09 03:44:20;;;;;;;5.55;2.03;;;16.80;99.90;;;;;;4156631;28;20041;-72
2021/08/09 03:46:22;;;;;;;5.15;1.90;;;16.80;99.90;;;;;;4157862;28;20514;-71
2021/08/09 03:48:23;;;;;;;3.65;1.77;;;16.80;99.90;;;;;;4139592;28;20482;-72
2021/08/09 03:50:24;;;;;;;3.08;1.50;;;16.80;99.90;;;;;;4158337;28;20025;-72
2021/08/09 03:52:25;;;;;;;3.40;1.50;;;16.80;99.90;;;;;;4158168;28;20038;-72
2021/08/09 03:54:26;;;;;;;3.40;2.00;;;16.80;99.90;;;;;;4158126;28;20037;-72
2021/08/09 03:56:26;;;;;;;3.97;1.38;;;16.80;99.90;;;;;;4157691;28;20120;-71
2021/08/09 03:58:27;;;;;;;3.35;1.67;;;16.80;99.90;;;;;;4156379;28;20030;-71
2021/08/09 04:00:27;;;;;;;4.63;1.70;;;16.80;99.90;;;;;;4156698;28;20037;-72
2021/08/09 04:02:30;;;;;;;5.25;1.92;;;16.80;99.90;;;;;;4157259;28;20140;-72
2021/08/09 04:04:30;;;;;;;3.10;1.50;;;16.80;99.90;;;;;;4157718;28;20037;-71
2021/08/09 04:06:32;;;;;;;3.08;1.55;;;16.80;99.90;;;;;;4158753;28;20049;-72
2021/08/09 04:08:32;;;;;;;3.53;1.70;;;16.80;99.90;;;;;;4163955;28;20064;-72
2021/08/09 04:10:33;;;;;;;4.05;1.85;;;16.80;99.90;;;;;;4159688;28;20057;-71
2021/08/09 04:12:34;;;;;;;3.88;1.90;;;16.80;99.90;;;;;;4168217;28;20025;-72
2021/08/09 04:14:34;;;;;;;4.97;1.77;;;16.80;99.90;;;;;;4192638;28;20043;-72
2021/08/09 04:16:35;;;;;;;3.65;1.50;;;16.80;99.90;;;;;;4167677;28;20083;-72
2021/08/09 04:18:35;;;;;;;4.13;2.05;;;16.80;99.90;;;;;;4165194;28;20033;-71
2021/08/09 04:20:37;;;;;;;3.60;1.52;;;16.80;99.90;;;;;;4159227;28;20458;-72
2021/08/09 04:22:38;;;;;;;3.72;1.70;;;16.80;99.90;;;;;;4165041;28;20037;-72
2021/08/09 04:24:38;;;;;;;2.53;1.40;;;16.80;99.90;;;;;;4160381;28;20194;-72
2021/08/09 04:26:39;;;;;;;2.65;1.40;;;16.90;99.90;;;;;;4160365;28;20045;-72
2021/08/09 04:28:39;;;;;;;5.60;1.83;;;16.90;99.90;;;;;;4191985;28;20041;-72
2021/08/09 04:30:40;;;;;;;3.60;1.40;;;16.90;99.90;;;;;;4161049;28;20091;-72
2021/08/09 04:32:41;;;;;;;3.35;1.60;;;16.90;99.90;;;;;;4160454;28;20111;-72
2021/08/09 04:34:43;;;;;;;3.33;1.50;;;16.90;99.90;;;;;;4160962;28;20037;-71
2021/08/09 04:36:43;;;;;;;4.45;1.95;;;16.90;99.90;;;;;;4160587;28;20042;-71
2021/08/09 04:38:44;;;;;;;4.28;1.90;;;16.90;99.90;;;;;;4159039;28;20367;-72
2021/08/09 04:40:45;;;;;;;4.10;1.60;;;16.90;99.90;;;;;;4160848;28;20037;-72
2021/08/09 04:42:45;;;;;;;3.22;1.55;;;17.00;99.90;;;;;;4159884;28;20124;-72
2021/08/09 04:44:46;;;;;;;5.32;2.30;;;16.90;99.90;;;;;;4160873;28;20049;-71
2021/08/09 04:46:46;;;;;;;3.03;1.70;;;16.90;99.90;;;;;;4160770;28;20113;-71
2021/08/09 04:48:47;;;;;;;4.10;1.60;;;16.90;99.90;;;;;;4160147;28;20041;-72
2021/08/09 04:50:47;;;;;;;5.20;1.73;;;17.00;99.90;;;;;;4160552;28;20118;-71
2021/08/09 04:52:48;;;;;;;2.58;1.52;;;16.90;99.90;;;;;;4159833;28;20041;-72
2021/08/09 04:54:48;;;;;;;2.78;1.70;;;16.90;99.90;;;;;;4158306;28;20037;-72
2021/08/09 04:56:49;;;;;;;4.32;1.58;;;16.90;99.90;;;;;;4160471;28;20060;-72
2021/08/09 04:58:50;;;;;;;5.72;1.55;;;16.90;99.90;;;;;;4160529;28;20045;-71
2021/08/09 05:00:51;;;;;;;3.95;1.75;;;16.90;99.90;;;;;;4160072;28;20319;-72
2021/08/09 05:02:51;;;;;;;4.55;1.52;;;16.90;99.90;;;;;;4160535;28;20033;-72
2021/08/09 05:04:52;;;;;;;5.72;1.98;;;16.90;99.90;;;;;;4158605;28;20042;-72
2021/08/09 05:06:53;;;;;;;5.20;1.77;;;16.90;99.90;;;;;;4155715;28;20565;-72
2021/08/09 05:08:53;;;;;;;3.30;1.88;;;16.90;99.90;;;;;;4166430;28;20034;-71
2021/08/09 05:10:54;;;;;;;4.72;1.70;;;16.90;99.90;;;;;;4157810;28;20220;-71
2021/08/09 05:12:54;;;;;;;3.45;1.80;;;17.00;99.90;;;;;;4164805;28;20055;-71
2021/08/09 05:14:55;;;;;;;6.88;1.77;;;16.90;99.90;;;;;;4161093;28;20421;-72
2021/08/09 05:16:56;;;;;;;3.85;1.80;;;16.90;99.90;;;;;;4160051;28;20064;-71
2021/08/09 05:19:01;;;;;;;3.97;1.60;;;17.00;99.90;;;;;;4159562;28;20033;-71
2021/08/09 05:21:02;;;;;;;3.38;1.60;;;17.00;99.90;;;;;;4158039;28;20037;-72
2021/08/09 05:23:03;;;;;;;3.88;1.70;;;17.00;99.90;;;;;;4147781;28;20967;-71
2021/08/09 05:25:08;;;;;;;6.15;1.83;;;17.00;99.90;;;;;;4157979;28;20052;-72
2021/08/09 05:27:09;;;;;;;3.70;1.60;;;17.00;99.90;;;;;;4141618;28;20730;-71
2021/08/09 05:29:09;;;;;;;4.18;1.77;;;17.00;99.90;;;;;;4125416;28;20045;-71
2021/08/09 05:31:11;;;;;;;3.63;1.58;;;17.00;99.90;;;;;;4143708;28;20552;-71
2021/08/09 05:33:12;;;;;;;1.95;1.50;;;17.00;99.90;;;;;;4142990;28;20049;-71
2021/08/09 05:35:13;;;;;;;3.17;1.25;;;17.00;99.90;;;;;;4143349;28;20046;-71
2021/08/09 05:37:14;;;;;;;4.50;2.28;;;17.10;99.90;;;;;;4142887;28;20065;-71
2021/08/09 05:39:14;;;;;;;4.80;1.83;;;17.10;99.90;;;;;;4142809;28;20022;-71
2021/08/09 05:41:15;;;;;;;5.18;2.05;;;17.10;99.90;;;;;;4143682;28;20041;-71
2021/08/09 05:43:16;;;;;;;6.85;2.10;;;17.10;99.90;;;;;;4141784;28;20084;-71
2021/08/09 05:45:16;;;;;;;4.97;1.75;;;17.00;99.90;;;;;;4140842;28;20368;-71
2021/08/09 05:47:18;;;;;;;5.05;2.10;;;17.10;99.90;;;;;;4143525;28;20061;-71
2021/08/09 05:49:19;;;;;;;3.15;1.40;;;17.00;99.90;;;;;;4141467;28;20037;-71
2021/08/09 05:51:19;;;;;;;4.20;1.83;;;17.00;99.90;;;;;;4142919;28;20061;-71
2021/08/09 05:53:20;;;;;;;5.47;1.98;;;17.10;99.90;;;;;;4141789;28;20022;-71
2021/08/09 05:55:23;;;;;;;3.92;1.50;;;17.00;99.90;;;;;;4127423;28;20068;-71
2021/08/09 05:57:24;;;;;;;3.28;1.63;;;17.10;99.90;;;;;;4144424;28;20375;-71
2021/08/09 05:59:25;;;;;;;3.85;1.73;;;17.10;99.90;;;;;;4139789;28;20034;-71
2021/08/09 06:01:25;;;;;;;5.15;1.48;;;17.10;99.90;;;;;;4176000;28;20044;-71
2021/08/09 06:03:26;;;;;;;5.95;2.08;;;17.10;99.90;;;;;;4159709;28;20382;-71
2021/08/09 06:05:27;;;;;;;5.03;1.75;;;17.10;99.90;;;;;;4160967;28;20512;-71
2021/08/09 06:07:27;;;;;;;5.88;2.08;;;17.10;99.90;;;;;;4140708;28;20026;-71
2021/08/09 06:09:28;;;;;;;5.07;2.13;;;17.10;99.90;;;;;;4142726;28;20117;-71
2021/08/09 06:11:28;;;;;;;3.50;1.83;;;17.10;99.90;;;;;;4143096;28;20467;-71
2021/08/09 06:13:29;;;;;;;4.20;1.70;;;17.00;99.90;;;;;;4140636;28;20088;-71
2021/08/09 06:15:30;;;;;;;4.70;2.00;;;17.10;99.90;;;;;;4143101;28;20029;-71
2021/08/09 06:17:32;;;;;;;3.30;1.63;;;17.10;99.90;;;;;;4142498;28;20033;-71
2021/08/09 06:19:34;;;;;;;5.53;1.80;;;17.10;99.90;;;;;;4140993;28;20025;-71
2021/08/09 06:21:34;;;;;;;5.07;2.03;;;17.10;99.90;;;;;;4141381;28;21282;-71
2021/08/09 06:23:35;;;;;;;5.22;1.80;;;17.10;99.90;;;;;;4141957;28;20057;-70
2021/08/09 06:25:36;;;;;;;4.50;1.88;;;17.10;99.90;;;;;;4141058;28;20030;-70
2021/08/09 06:27:36;;;;;;;4.60;1.70;;;17.10;99.90;;;;;;4142937;28;20493;-71
2021/08/09 06:29:37;;;;;;;3.10;1.70;;;17.10;99.90;;;;;;4141005;28;20030;-70
2021/08/09 06:31:37;;;;;;;4.65;2.00;;;17.10;99.90;;;;;;4141660;28;20479;-71
2021/08/09 06:33:38;;;;;;;3.75;2.20;;;17.10;99.90;;;;;;4143008;28;20041;-71
2021/08/09 06:35:39;;;;;;;5.60;2.00;;;17.10;99.90;;;;;;4141661;28;20044;-70
2021/08/09 06:37:40;;;;;;;3.63;1.67;;;17.10;99.90;;;;;;4142117;28;20406;-70
2021/08/09 06:39:41;;;;;;;3.50;1.67;;;17.10;99.90;;;;;;4140325;28;20610;-71
2021/08/09 06:41:41;;;;;;;4.40;2.05;;;17.10;99.90;;;;;;4141915;28;20034;-71
2021/08/09 06:43:42;;;;;;;2.88;1.63;;;17.10;99.90;;;;;;4141103;28;20037;-70
2021/08/09 06:45:44;;;;;;;4.50;1.70;;;17.10;99.90;;;;;;4142431;28;20056;-71
2021/08/09 06:47:44;;;;;;;5.28;2.05;;;17.10;99.90;;;;;;4137492;28;20072;-69
2021/08/09 06:49:45;;;;;;;3.58;1.85;;;17.10;99.90;;;;;;4141129;28;20037;-72
2021/08/09 06:51:45;;;;;;;3.70;1.95;;;17.10;99.90;;;;;;4141912;28;20025;-70
2021/08/09 06:53:46;;;;;;;8.55;1.98;;;17.10;99.90;;;;;;4142383;28;20038;-71
2021/08/09 06:55:46;;;;;;;7.68;2.33;;;17.10;99.90;;;;;;4142501;28;20034;-71
2021/08/09 06:57:47;;;;;;;7.28;2.33;;;17.10;99.90;;;;;;4142212;28;20030;-71
2021/08/09 06:59:47;;;;;;;6.65;2.15;;;17.10;99.90;;;;;;4141146;28;20069;-71
2021/08/09 07:01:48;;;;;;;5.97;2.10;;;17.10;99.90;;;;;;4141740;28;20490;-71
2021/08/09 07:03:49;;;;;;;5.20;1.92;;;17.10;99.90;;;;;;4139953;28;20108;-71
2021/08/09 07:05:49;;;;;;;5.28;2.10;;;17.20;99.90;;;;;;4142009;28;20037;-71
2021/08/09 07:07:51;;;;;;;4.35;2.00;;;17.20;99.90;;;;;;4141981;28;20037;-71
2021/08/09 07:09:52;;;;;;;4.72;2.08;;;17.20;99.90;;;;;;4140582;28;20060;-71
2021/08/09 07:11:53;;;;;;;4.80;1.92;;;17.20;99.90;;;;;;4140862;28;20049;-71
2021/08/09 07:13:54;;;;;;;4.32;2.20;;;17.30;99.90;;;;;;4141775;28;20026;-71
2021/08/09 07:15:54;;;;;;;4.32;1.80;;;17.20;99.90;;;;;;4140833;28;20109;-71
2021/08/09 07:17:55;;;;;;;4.43;2.08;;;17.20;99.90;;;;;;4141851;28;20038;-71
2021/08/09 07:19:55;;;;;;;6.28;2.30;;;17.20;99.90;;;;;;4141359;28;20183;-71
2021/08/09 07:21:56;;;;;;;3.55;1.88;;;17.30;99.90;;;;;;4142014;28;20049;-71
2021/08/09 07:23:57;;;;;;;3.10;1.85;;;17.30;99.90;;;;;;4140207;28;20029;-70
2021/08/09 07:25:57;;;;;;;5.63;1.75;;;17.30;99.90;;;;;;4135887;28;20034;-70
2021/08/09 07:27:58;;;;;;;6.00;1.77;;;17.40;99.90;;;;;;4136178;28;20097;-70
2021/08/09 07:29:58;;;;;;;10.60;1.73;;;17.40;99.90;;;;;;4141462;28;20034;-70
2021/08/09 07:31:59;;;;;;;4.30;1.70;;;17.40;99.90;;;;;;4141161;28;20045;-71
2021/08/09 07:34:00;;;;;;;4.43;1.85;;;17.40;99.90;;;;;;4140585;28;20133;-74
2021/08/09 07:36:01;;;;;;;4.03;1.75;;;17.40;99.90;;;;;;4141384;28;20052;-71
2021/08/09 07:38:01;;;;;;;3.63;1.80;;;17.50;99.90;;;;;;4141506;28;20399;-72
2021/08/09 07:40:04;;;;;;;2.28;1.65;;;17.50;99.90;;;;;;4141891;28;20199;-71
2021/08/09 07:42:04;;;;;;;;;;;17.60;99.90;;;;;;4138074;28;20026;-72
2021/08/09 07:44:05;;;;;;;4.65;1.70;;;17.60;99.90;;;;;;4140090;28;19917;-71
2021/08/09 07:46:06;;;;;;;2.78;1.70;;;17.70;99.90;;;;;;4141373;28;20045;-71
2021/08/09 07:48:06;;;;;;;4.68;1.77;;;17.70;99.90;;;;;;4141346;28;20057;-72
2021/08/09 07:50:07;;;;;;;4.22;1.92;;;17.70;99.90;;;;;;4141451;28;20041;-72
2021/08/09 07:52:08;;;;;;;3.17;1.85;;;17.70;99.90;;;;;;4140056;28;20030;-72
2021/08/09 07:54:08;;;;;;;2.13;1.40;;;17.70;99.90;;;;;;4138847;28;20030;-72
2021/08/09 07:56:09;;;;;;;3.65;1.77;;;17.80;99.90;;;;;;4140791;28;20607;-72
2021/08/09 07:58:10;;;;;;;5.63;2.00;;;17.90;99.90;;;;;;4140882;28;20044;-72
2021/08/09 08:00:11;;;;;;;3.33;1.67;;;17.90;99.90;;;;;;4139503;28;20038;-72
2021/08/09 08:02:13;;;;;;;4.13;1.83;;;18.00;99.90;;;;;;4140840;28;20188;-72
2021/08/09 08:04:13;;;;;;;4.85;1.92;;;18.00;99.90;;;;;;4140377;28;20291;-72
2021/08/09 08:06:14;;;;;;;4.55;1.90;;;18.10;99.90;;;;;;4140318;28;20029;-72
2021/08/09 08:08:15;;;;;;;3.58;1.50;;;18.20;99.90;;;;;;4141684;28;20034;-72
2021/08/09 08:10:15;;;;;;;1.98;1.20;;;18.20;99.90;;;;;;4139990;28;20080;-72
2021/08/09 08:12:16;;;;;;;5.55;1.48;;;18.30;99.90;;;;;;4139671;28;20049;-72
2021/08/09 08:14:17;;;;;;;3.20;1.45;;;18.30;99.90;;;;;;4139795;28;20034;-72
2021/08/09 08:16:18;;;;;;;5.28;1.98;;;18.40;99.90;;;;;;4140831;28;20040;-72
2021/08/09 08:18:18;;;;;;;5.75;1.50;;;18.40;99.90;;;;;;4141085;28;20045;-72
2021/08/09 08:20:19;;;;;;;4.60;1.83;;;18.50;99.90;;;;;;4140993;28;20042;-72
2021/08/09 08:22:19;;;;;;;4.53;1.40;;;18.60;99.90;;;;;;4139831;28;20037;-72
2021/08/09 08:24:20;;;;;;;5.65;2.30;;;18.60;99.90;;;;;;4141612;28;20480;-72
2021/08/09 08:26:20;;;;;;;3.85;1.45;;;18.60;99.90;;;;;;4139814;28;20161;-72
2021/08/09 08:28:21;;;;;;;5.18;1.80;;;18.70;99.90;;;;;;4141332;28;20038;-72
2021/08/09 08:30:22;;;;;;;7.75;2.00;;;18.70;99.90;;;;;;4140163;28;20052;-72
2021/08/09 08:32:22;;;;;;;2.92;1.38;;;18.70;99.90;;;;;;4135013;28;20312;-72
2021/08/09 08:34:23;;;;;;;5.18;1.40;;;18.70;99.90;;;;;;4153106;28;20037;-72
2021/08/09 08:36:23;;;;;;;2.95;1.50;;;18.70;99.90;;;;;;4135328;28;20556;-72
2021/08/09 08:38:24;;;;;;;2.75;1.63;;;18.80;99.90;;;;;;4140713;28;20752;-73
2021/08/09 08:40:25;;;;;;;5.22;1.50;;;18.80;99.90;;;;;;4120462;28;20431;-71
2021/08/09 08:42:25;;;;;;;3.83;1.60;;;18.90;99.90;;;;;;4153105;28;20141;-72
2021/08/09 08:44:26;;;;;;;3.67;1.48;;;18.90;99.90;;;;;;4152656;28;20481;-72
2021/08/09 08:46:27;;;;;;;3.42;1.50;;;19.00;99.90;;;;;;4153613;28;20470;-72
2021/08/09 08:48:29;;;;;;;3.38;1.50;;;19.10;99.90;;;;;;4152369;28;20053;-72
2021/08/09 08:50:29;;;;;;;6.47;1.58;;;19.20;99.90;;;;;;4145090;28;20125;-73
2021/08/09 08:52:30;;;;;;;5.07;1.77;;;19.30;99.90;;;;;;4140677;28;20026;-72
2021/08/09 08:54:31;;;;;;;3.40;1.50;;;19.30;99.90;;;;;;4140584;28;20046;-72
2021/08/09 08:56:31;;;;;;;2.90;1.73;;;19.40;99.90;;;;;;4141518;28;20053;-72
2021/08/09 08:58:32;;;;;;;2.95;1.30;;;19.50;99.90;;;;;;4143863;28;20402;-73
2021/08/09 09:00:37;;;;;;;6.45;1.63;;;19.60;99.90;;;;;;4148472;28;20081;-72
2021/08/09 09:02:39;;;;;;;5.00;1.60;;;19.70;99.90;;;;;;4149729;28;20069;-72
2021/08/09 09:04:39;;;;;;;4.90;1.60;;;19.80;99.90;;;;;;4144159;28;20084;-73
2021/08/09 09:06:43;;;;;;;2.70;1.30;;;19.90;99.90;;;;;;4144571;28;20034;-73
2021/08/09 09:08:48;;;;;;;4.35;1.67;;;20.00;99.90;;;;;;4144297;28;20509;-72
2021/08/09 09:10:48;;;;;;;8.65;1.67;;;20.10;99.90;;;;;;4158513;28;20488;-72
2021/08/09 09:13:04;;;;;;;2.70;1.33;;;20.20;99.90;;;;;;4160242;28;20063;-72
2021/08/09 09:15:06;;;;;;;3.35;1.35;;;20.30;99.90;;;;;;4159628;28;20475;-73
2021/08/09 09:17:06;;;;;;;2.28;1.00;;;20.30;99.90;;;;;;4160532;28;20057;-72
2021/08/09 09:19:07;;;;;;;2.45;1.10;;;20.30;99.90;;;;;;4157470;28;20540;-72
2021/08/09 09:21:22;;;;;;;3.70;1.20;;;20.40;99.90;;;;;;4160331;28;20500;-72
2021/08/09 09:23:24;;;;;;;3.58;1.05;;;20.40;99.90;;;;;;4154042;28;20057;-72
2021/08/09 09:25:32;;;;;;;2.83;1.33;;;20.50;99.90;;;;;;4145202;28;20030;-72
2021/08/09 09:27:34;;;;;;;3.17;0.90;;;20.60;99.90;;;;;;4174332;28;20162;-72
2021/08/09 09:29:40;;;;;;;4.20;1.25;;;20.60;99.90;;;;;;4144408;28;20042;-72
2021/08/09 09:31:43;;;;;;;2.90;1.20;;;20.70;99.90;;;;;;4144376;28;20231;-72
2021/08/09 09:33:48;;;;;;;4.63;1.08;;;20.80;99.90;;;;;;4140562;28;20372;-72
2021/08/09 09:35:50;;;;;;;4.57;1.33;;;20.90;99.90;;;;;;4151067;28;20566;-72
2021/08/09 09:37:51;;;;;;;2.15;1.05;;;20.90;99.90;;;;;;4157097;28;20119;-72
2021/08/09 09:39:52;;;;;;;2.13;0.90;;;20.90;99.90;;;;;;4143744;28;20657;-72
2021/08/09 09:41:53;;;;;;;2.67;0.88;;;21.00;99.90;;;;;;4141621;28;20026;-72
2021/08/09 09:43:54;;;;;;;4.72;1.23;;;20.90;99.90;;;;;;4141717;28;20437;-72
2021/08/09 09:45:55;;;;;;;4.22;1.42;;;20.90;99.90;;;;;;4145962;28;20109;-72
2021/08/09 09:48:10;;;;;;;2.97;1.02;;;21.00;99.90;;;;;;4145461;28;20045;-72
2021/08/09 09:50:26;;;;;;;2.90;1.23;;;20.90;99.90;;;;;;4158345;28;20473;-72
2021/08/09 09:52:47;;;;;;;1.98;1.00;;;20.90;99.90;;;;;;4147378;28;20503;-72
2021/08/09 09:54:49;;;;;;;2.28;1.10;;;20.90;99.90;;;;;;4181577;28;20049;-72
2021/08/09 09:56:50;;;;;;;2.70;0.90;;;20.90;99.90;;;;;;4141198;28;20037;-72
2021/08/09 09:58:53;;;;;;;3.78;1.00;;;20.90;99.90;;;;;;4143018;28;20487;-72
2021/08/09 10:00:55;;;;;;;2.53;0.93;;;20.90;99.90;;;;;;4173597;28;20044;-73
2021/08/09 10:02:56;;;;;;;2.88;1.00;;;20.90;99.90;;;;;;4141849;28;20356;-73
2021/08/09 10:04:57;;;;;;;5.70;1.13;;;20.90;99.90;;;;;;4158035;28;20045;-72
2021/08/09 10:06:58;;;;;;;3.20;1.27;;;20.90;99.90;;;;;;4157623;28;20382;-72
2021/08/09 10:08:59;;;;;;;4.50;1.10;;;20.90;99.90;;;;;;4149928;28;20057;-73
2021/08/09 10:11:03;;;;;;;3.75;1.15;;;20.90;99.90;;;;;;4159078;28;20029;-73
2021/08/09 10:13:04;;;;;;;3.63;1.40;;;20.90;99.90;;;;;;4141178;28;20169;-73
2021/08/09 10:15:06;;;;;;;6.53;1.50;;;20.90;99.90;;;;;;4158212;28;20698;-73
2021/08/09 10:17:07;;;;;;;3.08;1.33;;;20.90;99.90;;;;;;4148918;28;20053;-73
2021/08/09 10:19:09;;;;;;;6.18;1.20;;;20.90;99.90;;;;;;4144108;28;20500;-73
2021/08/09 10:21:10;;;;;;;3.42;1.25;;;21.00;99.90;;;;;;4160070;28;20133;-72
2021/08/09 10:23:10;;;;;;;3.15;0.98;;;21.00;99.90;;;;;;4147817;28;20069;-72
2021/08/09 10:25:11;;;;;;;6.18;1.27;;;21.10;99.90;;;;;;4143528;28;20223;-73
2021/08/09 10:27:12;;;;;;;1.25;0.75;;;21.10;99.90;;;;;;4142199;28;20495;-72
2021/08/09 10:29:13;;;;;;;3.22;1.13;;;21.10;99.90;;;;;;4152525;28;20152;-72
2021/08/09 10:31:31;;;;;;;2.67;0.90;;;21.10;99.90;;;;;;4146952;28;20436;-73
2021/08/09 10:33:48;;;;;;;3.95;1.38;;;21.10;99.90;;;;;;4139930;28;20556;-73
2021/08/09 10:35:50;;;;;;;3.03;1.60;;;21.10;99.90;;;;;;4140897;28;20474;-73